Time;durP1;ratioP1;P1;durP2;ratioP2;P2;SDS_P1;SDS_P2;PMS_P1;PMS_P2;Temp;Humidity;BMP_temperature;BMP_pressure;BME280_temperature;BME280_humidity;BME280_pressure;Samples;Min_cycle;Max_cycle;Signal;HPM_P1;HPM_P2
2022/12/04 00:01:20;;;;;;;0.32;0.32;;;2.60;99.90;;;2.44;100.00;100043.06;5009164;28;20292;-81
2022/12/04 00:03:52;;;;;;;0.10;0.10;;;2.60;99.90;;;2.45;100.00;100055.28;5010845;28;20695;-80
2022/12/04 00:06:21;;;;;;;0.20;0.20;;;2.60;99.90;;;2.45;100.00;100057.00;5007276;28;20231;-81
2022/12/04 00:08:49;;;;;;;0.10;0.10;;;2.70;99.90;;;2.46;100.00;100064.00;5001836;28;20239;-81
2022/12/04 00:11:21;;;;;;;0.20;0.20;;;3.70;99.90;;;2.44;100.00;100058.72;5007253;28;20251;-80
2022/12/04 00:13:48;;;;;;;0.20;0.20;;;2.60;99.90;;;2.39;100.00;100057.69;4999706;28;20273;-80
2022/12/04 00:16:20;;;;;;;0.55;0.55;;;2.60;99.90;;;2.39;100.00;100054.19;5001652;28;20231;-81
2022/12/04 00:18:48;;;;;;;0.10;0.10;;;2.60;99.90;;;2.42;100.00;100054.28;5004900;28;20224;-82
2022/12/04 00:21:17;;;;;;;0.10;0.10;;;2.60;99.90;;;2.33;100.00;100040.94;4999717;28;20262;-81
2022/12/04 00:23:45;;;;;;;0.10;0.10;;;2.50;99.90;;;2.34;100.00;100038.38;5006690;28;20255;-80
2022/12/04 00:28:55;;;;;;;0.10;0.10;;;2.60;99.90;;;2.37;100.00;100032.38;5144661;23;20220;-81
2022/12/04 00:31:26;;;;;;;0.20;0.20;;;2.60;99.90;;;2.34;100.00;100027.03;5019046;28;20235;-83
2022/12/04 00:33:53;;;;;;;0.10;0.10;;;2.50;99.90;;;2.33;100.00;100022.66;5021988;28;20234;-82
2022/12/04 00:36:24;;;;;;;0.10;0.10;;;2.60;99.90;;;2.33;100.00;100013.13;5023513;28;20227;-82
2022/12/04 00:38:53;;;;;;;0.32;0.32;;;2.50;99.90;;;2.31;100.00;100014.78;5017289;28;20227;-82
2022/12/04 00:41:23;;;;;;;0.10;0.10;;;2.50;99.90;;;2.31;100.00;100006.94;5022998;28;20258;-82
2022/12/04 00:43:51;;;;;;;0.10;0.10;;;2.50;99.90;;;2.31;100.00;100013.88;5023522;28;20309;-82
2022/12/04 00:46:19;;;;;;;0.10;0.10;;;2.50;99.90;;;2.25;100.00;99991.97;5017943;28;20527;-83
2022/12/04 00:48:46;;;;;;;0.10;0.10;;;2.50;99.90;;;2.24;100.00;99986.69;5019677;28;20231;-83
2022/12/04 00:51:20;;;;;;;0.90;0.90;;;2.50;99.90;;;2.23;100.00;100001.47;5011964;28;20231;-82
2022/12/04 00:53:49;;;;;;;0.10;0.10;;;2.50;99.90;;;2.21;100.00;100013.56;5021311;28;20239;-83
2022/12/04 00:56:24;;;;;;;0.10;0.10;;;2.40;99.90;;;2.19;100.00;100003.91;5026254;28;20250;-83
2022/12/04 00:58:57;;;;;;;0.10;0.10;;;2.40;99.90;;;2.17;100.00;100006.47;5025960;28;20299;-82
2022/12/04 01:01:25;;;;;;;0.10;0.10;;;2.30;99.90;;;2.14;100.00;100003.75;5033205;28;20269;-82
2022/12/04 01:03:54;;;;;;;0.13;0.13;;;2.40;99.90;;;2.14;100.00;99997.66;5028285;28;20222;-82
2022/12/04 01:06:27;;;;;;;0.10;0.10;;;0.40;99.90;;;2.16;100.00;100011.63;5030250;28;20230;-82
2022/12/04 01:08:56;;;;;;;0.73;0.70;;;2.30;99.90;;;2.10;100.00;100003.59;5032566;28;20305;-83
2022/12/04 01:11:26;;;;;;;0.10;0.10;;;2.30;99.90;;;2.12;100.00;100015.84;5028642;28;20227;-81
2022/12/04 01:13:54;;;;;;;0.10;0.10;;;2.50;99.90;;;2.12;100.00;100020.19;5026506;28;20224;-81
2022/12/04 01:16:41;;;;;;;0.10;0.10;;;2.30;99.90;;;2.10;100.00;100011.41;5021038;28;20227;-80
2022/12/04 01:19:11;;;;;;;0.15;0.15;;;2.30;99.90;;;2.10;100.00;100009.69;5030715;28;20228;-81
2022/12/04 01:21:39;;;;;;;1.05;1.05;;;2.30;99.90;;;2.10;100.00;100017.50;5030772;28;20231;-81
2022/12/04 01:24:07;;;;;;;0.10;0.10;;;2.30;99.90;;;2.02;100.00;100002.44;5030415;28;20254;-82
2022/12/04 01:26:34;;;;;;;0.10;0.10;;;2.30;99.90;;;2.04;100.00;100011.19;5023510;28;20297;-83
2022/12/04 01:29:02;;;;;;;0.10;0.10;;;2.40;99.90;;;2.07;100.00;100019.13;5019776;28;20258;-83
2022/12/04 01:31:30;;;;;;;0.10;0.10;;;2.30;99.90;;;2.04;100.00;100014.69;5020995;28;20259;-83
2022/12/04 01:33:58;;;;;;;0.13;0.13;;;4.50;99.90;;;2.02;100.00;100007.63;5017853;28;20231;-82
2022/12/04 01:36:27;;;;;;;0.10;0.10;;;2.30;99.90;;;2.08;100.00;100032.22;5029821;28;20239;-81
2022/12/04 01:38:55;;;;;;;0.10;0.10;;;2.30;99.90;;;2.05;100.00;100033.81;5019750;28;20239;-80
2022/12/04 01:41:28;;;;;;;0.10;0.10;;;2.30;99.90;;;2.01;100.00;100024.13;5024621;28;20231;-81
2022/12/04 01:44:19;;;;;;;0.10;0.10;;;2.20;99.90;;;1.96;100.00;100010.91;5021432;28;20242;-81
2022/12/04 01:46:50;;;;;;;0.10;0.10;;;2.20;99.90;;;2.01;100.00;100011.09;5019395;28;20238;-81
2022/12/04 01:49:37;;;;;;;0.10;0.10;;;2.30;99.90;;;2.11;100.00;100028.84;5019762;28;20263;-80
2022/12/04 01:52:11;;;;;;;0.10;0.10;;;2.20;99.90;;;2.07;100.00;100016.53;5019019;28;20247;-83
2022/12/04 01:54:50;;;;;;;0.85;0.85;;;2.30;99.90;;;1.97;100.00;100004.88;5026702;28;20250;-83
2022/12/04 01:57:20;;;;;;;0.10;0.10;;;2.20;99.90;;;2.03;100.00;100010.31;5026659;28;20313;-83
2022/12/04 02:00:12;;;;;;;0.10;0.10;;;2.30;99.90;;;2.11;100.00;100023.63;5027690;28;20255;-83
2022/12/04 02:02:44;;;;;;;0.10;0.10;;;2.30;99.90;;;2.08;100.00;100023.50;5021911;28;20254;-83
2022/12/04 02:05:16;;;;;;;0.10;0.10;;;2.30;99.90;;;2.03;100.00;100010.31;5024568;28;20232;-81
2022/12/04 02:07:46;;;;;;;0.43;0.43;;;2.20;99.90;;;2.04;100.00;100013.81;5029749;28;20227;-81
2022/12/04 02:10:16;;;;;;;0.10;0.10;;;2.20;99.90;;;2.04;100.00;100019.91;5023854;28;20286;-81
2022/12/04 02:13:17;;;;;;;0.28;0.28;;;2.30;99.90;;;2.02;100.00;100013.75;5027330;28;20226;-81
2022/12/04 02:16:04;;;;;;;0.10;0.10;;;2.20;99.90;;;2.03;100.00;100025.94;5021117;28;20282;-81
2022/12/04 02:18:44;;;;;;;0.20;0.20;;;2.20;99.90;;;1.96;100.00;100000.47;5028486;28;20226;-83
2022/12/04 02:21:29;;;;;;;0.20;0.20;;;2.20;99.90;;;2.00;100.00;99999.75;5028618;28;20254;-83
2022/12/04 02:24:24;;;;;;;0.10;0.10;;;2.20;99.90;;;1.97;100.00;99991.81;5016703;28;20263;-82
2022/12/04 02:27:39;;;;;;;0.10;0.10;;;2.20;99.90;;;2.03;100.00;100002.47;5020582;28;20316;-83
2022/12/04 02:30:10;;;;;;;0.13;0.13;;;2.20;99.90;;;2.00;100.00;100004.97;5029705;28;20278;-83
2022/12/04 02:33:00;;;;;;;0.10;0.10;;;2.30;99.90;;;2.02;100.00;100011.13;5012366;28;20289;-82
2022/12/04 02:35:43;;;;;;;0.10;0.10;;;2.20;99.90;;;1.96;100.00;100005.69;5011659;28;20223;-82
2022/12/04 02:38:26;;;;;;;0.10;0.10;;;2.20;99.90;;;1.96;100.00;100004.81;5017461;28;20259;-82
2022/12/04 02:41:00;;;;;;;0.68;0.68;;;2.20;99.90;;;1.98;100.00;100001.44;5018141;28;20265;-83
2022/12/04 02:43:38;;;;;;;0.20;0.20;;;2.20;99.90;;;1.96;100.00;99997.88;5016122;28;20323;-83
2022/12/04 02:46:23;;;;;;;0.10;0.10;;;2.20;99.90;;;1.97;100.00;100001.38;5010130;28;20228;-82
2022/12/04 02:48:56;;;;;;;0.20;0.20;;;2.20;99.90;;;1.96;100.00;99999.59;5021883;28;20234;-83
2022/12/04 02:51:27;;;;;;;0.10;0.10;;;2.20;99.90;;;1.96;100.00;100000.47;5020960;28;20318;-83
2022/12/04 02:54:01;;;;;;;0.20;0.20;;;2.30;99.90;;;1.93;100.00;99992.56;5019281;28;20271;-83
2022/12/04 02:56:36;;;;;;;0.10;0.10;;;2.20;99.90;;;1.91;100.00;99984.69;5011401;28;20385;-85
2022/12/04 02:59:16;;;;;;;0.10;0.10;;;2.20;99.90;;;1.93;100.00;99988.22;5027811;28;20638;-83
2022/12/04 03:01:48;;;;;;;0.10;0.10;;;2.10;99.90;;;1.92;100.00;99982.94;5024173;28;20646;-83
2022/12/04 03:04:29;;;;;;;0.70;0.70;;;2.60;99.90;;;1.91;100.00;99973.34;5023065;28;20238;-83
2022/12/04 03:07:06;;;;;;;0.35;0.35;;;2.10;99.90;;;1.91;100.00;99978.56;5019159;28;20720;-83
2022/12/04 03:09:41;;;;;;;2.42;0.63;;;2.10;99.90;;;1.96;100.00;99978.72;5023148;28;20250;-84
2022/12/04 03:12:39;;;;;;;0.10;0.10;;;2.10;99.90;;;1.88;100.00;99971.53;5028524;28;20298;-84
2022/12/04 03:15:23;;;;;;;0.20;0.20;;;2.10;99.90;;;1.90;100.00;99977.69;5022735;28;20259;-83
2022/12/04 03:18:02;;;;;;;0.10;0.10;;;2.10;99.90;;;1.89;100.00;99975.91;5029790;28;20270;-83
2022/12/04 03:20:33;;;;;;;0.10;0.10;;;2.80;99.90;;;1.89;100.00;99978.50;5017477;28;20231;-83
2022/12/04 03:23:11;;;;;;;0.35;0.35;;;2.30;99.90;;;1.90;100.00;99980.28;5027632;28;20320;-84
2022/12/04 03:26:05;;;;;;;0.20;0.20;;;2.10;99.90;;;1.92;100.00;99982.94;5017564;28;20314;-83
2022/12/04 03:29:01;;;;;;;0.38;0.38;;;2.10;99.90;;;2.02;100.00;99987.66;5013044;28;20247;-83
2022/12/04 03:32:00;;;;;;;0.10;0.10;;;2.10;99.90;;;1.93;100.00;99977.78;5017932;28;20234;-83
2022/12/04 03:35:04;;;;;;;0.10;0.10;;;2.20;99.90;;;1.92;100.00;99965.59;5021098;28;20613;-83
2022/12/04 03:37:56;;;;;;;0.13;0.13;;;2.10;99.90;;;1.89;100.00;99964.59;5022618;28;20265;-82
2022/12/04 03:41:19;;;;;;;0.15;0.15;;;2.10;99.90;;;1.95;100.00;99958.72;5026599;28;20250;-83
2022/12/04 03:43:56;;;;;;;0.10;0.10;;;2.10;99.90;;;1.92;100.00;99957.75;5012019;28;20223;-82
2022/12/04 03:46:39;;;;;;;0.50;0.50;;;2.20;99.90;;;1.97;100.00;99967.47;5019302;28;20245;-82
2022/12/04 03:49:45;;;;;;;0.10;0.10;;;2.20;99.90;;;1.90;100.00;99969.84;5037764;28;20227;-83
2022/12/04 03:52:32;;;;;;;1.85;0.50;;;2.10;99.90;;;1.85;100.00;99947.94;5020495;28;20318;-82
2022/12/04 03:55:23;;;;;;;0.20;0.20;;;2.10;99.90;;;1.89;100.00;99949.84;5017388;28;20251;-83
2022/12/04 03:57:56;;;;;;;0.20;0.20;;;2.10;99.90;;;1.94;100.00;99947.38;5021885;28;20227;-83
2022/12/04 04:00:23;;;;;;;0.10;0.10;;;2.10;99.90;;;1.94;100.00;99947.38;5022846;28;20250;-82
2022/12/04 04:03:02;;;;;;;0.20;0.20;;;2.10;99.90;;;1.92;100.00;99943.84;5022384;28;20318;-82
2022/12/04 04:05:31;;;;;;;0.10;0.10;;;2.10;99.90;;;1.91;100.00;99942.94;5004483;28;20277;-83
2022/12/04 04:10:55;;;;;;;0.10;0.10;;;2.30;99.90;;;1.91;100.00;99942.06;5016401;28;20879;-83
2022/12/04 04:25:03;;;;;;;0.10;0.10;;;2.10;99.90;;;1.93;100.00;99924.75;5026561;28;20227;-83
2022/12/04 04:27:30;;;;;;;0.13;0.13;;;2.10;99.90;;;1.91;100.00;99922.09;5026610;28;20254;-84
2022/12/04 04:29:58;;;;;;;0.10;0.10;;;2.30;99.90;;;1.89;100.00;99909.84;5021473;28;20227;-83
2022/12/04 04:32:45;;;;;;;0.10;0.10;;;2.30;99.90;;;1.86;100.00;99909.72;5030962;28;20273;-83
2022/12/04 04:35:48;;;;;;;0.10;0.10;;;2.10;99.90;;;1.95;100.00;99930.03;5024864;28;20251;-84
2022/12/04 04:38:32;;;;;;;0.10;0.10;;;2.10;99.90;;;1.92;100.00;99925.59;5019727;28;20242;-84
2022/12/04 04:41:11;;;;;;;0.20;0.20;;;2.10;99.90;;;1.93;100.00;99929.97;5028465;28;20266;-83
2022/12/04 04:44:14;;;;;;;0.10;0.10;;;2.10;99.90;;;1.99;100.00;99931.91;5019606;28;20243;-84
2022/12/04 04:46:50;;;;;;;0.30;0.30;;;2.10;99.90;;;1.99;100.00;99940.63;5015794;28;20235;-84
2022/12/04 04:49:22;;;;;;;0.20;0.20;;;2.90;99.90;;;1.94;100.00;99929.13;5013939;28;20310;-83
2022/12/04 04:51:49;;;;;;;0.13;0.13;;;2.20;99.90;;;1.95;100.00;99935.25;5013223;28;20266;-84
2022/12/04 04:54:18;;;;;;;0.10;0.10;;;2.30;99.90;;;1.95;100.00;99943.94;5019164;28;20270;-83
2022/12/04 04:56:46;;;;;;;0.17;0.17;;;2.20;99.90;;;1.98;100.00;99945.78;5018070;28;20306;-84
2022/12/04 04:59:14;;;;;;;0.22;0.22;;;2.40;99.90;;;1.91;100.00;99939.47;5014314;28;20301;-84
2022/12/04 05:01:44;;;;;;;0.10;0.10;;;2.10;99.90;;;1.95;100.00;99950.88;5027321;28;20284;-84
2022/12/04 05:04:11;;;;;;;1.00;0.93;;;2.10;99.90;;;1.97;100.00;99951.81;5024958;28;20292;-84
2022/12/04 05:06:38;;;;;;;0.20;0.20;;;2.20;99.90;;;1.96;100.00;99952.66;5023316;28;20262;-85
2022/12/04 05:09:05;;;;;;;0.35;0.35;;;2.20;99.90;;;1.93;100.00;99956.03;5022024;28;20290;-84
2022/12/04 05:11:32;;;;;;;0.50;0.50;;;2.10;99.90;;;1.94;100.00;99952.59;5027447;28;20262;-84
2022/12/04 05:14:00;;;;;;;0.25;0.25;;;2.70;99.90;;;1.97;100.00;99957.03;5024680;28;20282;-84
2022/12/04 05:16:27;;;;;;;0.10;0.10;;;2.20;99.90;;;1.97;100.00;99965.75;5015540;28;20227;-85
2022/12/04 05:21:40;;;;;;;0.10;0.10;;;2.30;99.90;;;1.96;100.00;99944.84;5025449;28;20296;-84
2022/12/04 05:24:08;;;;;;;0.10;0.10;;;2.20;99.90;;;2.00;100.00;99960.66;5025798;28;20233;-85
2022/12/04 05:26:35;;;;;;;0.17;0.17;;;2.20;99.90;;;1.97;100.00;99955.31;5029351;28;20295;-84
2022/12/04 05:29:02;;;;;;;0.10;0.10;;;2.20;99.90;;;1.97;100.00;99951.81;5025442;28;20255;-85
2022/12/04 05:31:29;;;;;;;0.10;0.10;;;2.30;99.90;;;1.97;100.00;99952.72;5031490;28;20262;-83
2022/12/04 05:33:56;;;;;;;0.17;0.17;;;2.20;99.90;;;1.98;100.00;99946.66;5024085;28;20234;-83
2022/12/04 05:36:23;;;;;;;0.10;0.10;;;2.30;99.90;;;2.01;100.00;99948.50;5023542;28;20251;-83
2022/12/04 05:38:51;;;;;;;0.10;0.10;;;2.20;99.90;;;2.01;100.00;99949.38;5029673;28;20227;-83
2022/12/04 05:41:18;;;;;;;0.10;0.10;;;2.10;99.90;;;2.02;100.00;99958.09;5026527;28;20235;-84
2022/12/04 05:43:45;;;;;;;0.10;0.10;;;2.60;99.90;;;2.01;100.00;99953.72;5025253;28;20235;-84
2022/12/04 05:46:12;;;;;;;0.10;0.10;;;2.60;99.90;;;2.03;100.00;99952.03;5026017;28;20247;-84
2022/12/04 05:48:39;;;;;;;0.10;0.10;;;2.20;99.90;;;2.01;100.00;99970.25;5026119;28;20242;-84
2022/12/04 05:51:09;;;;;;;0.10;0.10;;;2.90;99.90;;;2.02;100.00;99974.63;5025226;28;20234;-83
2022/12/04 05:53:37;;;;;;;0.10;0.10;;;2.20;99.90;;;2.00;100.00;99978.91;5030856;28;20261;-83
2022/12/04 05:56:06;;;;;;;0.10;0.10;;;2.50;99.90;;;2.07;100.00;99988.72;5033232;28;20231;-83
2022/12/04 05:58:35;;;;;;;0.20;0.20;;;2.20;99.90;;;2.07;100.00;99987.84;5027471;28;20235;-84
2022/12/04 06:01:22;;;;;;;0.10;0.10;;;2.50;99.90;;;2.02;100.00;99973.75;5025375;28;20281;-84
2022/12/04 06:03:49;;;;;;;0.10;0.10;;;2.20;99.90;;;2.02;100.00;99971.13;5023562;28;20238;-83
2022/12/04 06:06:22;;;;;;;0.10;0.10;;;2.30;99.90;;;2.01;100.00;99972.84;5026231;28;20227;-83
2022/12/04 06:08:52;;;;;;;0.10;0.10;;;2.80;99.90;;;2.03;100.00;99968.56;5020389;28;20242;-83
2022/12/04 06:11:29;;;;;;;0.10;0.10;;;2.20;99.90;;;2.01;100.00;99974.56;5023798;28;20231;-83
2022/12/04 06:14:00;;;;;;;0.10;0.10;;;2.20;99.90;;;2.02;100.00;99972.03;5017252;28;20235;-83
2022/12/04 06:16:34;;;;;;;0.10;0.10;;;2.30;99.90;;;2.02;100.00;99979.84;5022428;28;20245;-82
2022/12/04 06:19:10;;;;;;;0.10;0.10;;;2.20;99.90;;;2.05;100.00;99968.63;5025679;28;20357;-85
2022/12/04 06:21:39;;;;;;;0.10;0.10;;;2.20;99.90;;;2.03;100.00;99968.56;5021052;28;20235;-83
2022/12/04 06:24:20;;;;;;;0.10;0.10;;;2.30;99.90;;;2.06;100.00;99973.00;5023958;28;20314;-84
2022/12/04 06:26:48;;;;;;;0.10;0.10;;;2.50;99.90;;;2.06;100.00;99966.06;5026797;28;20261;-84
2022/12/04 06:29:35;;;;;;;0.10;0.10;;;2.50;99.90;;;2.06;100.00;99960.84;5028195;28;20235;-83
2022/12/04 06:32:03;;;;;;;0.90;0.45;;;2.70;99.90;;;2.10;100.00;99964.47;5018749;28;20220;-83
2022/12/04 06:34:31;;;;;;;0.28;0.28;;;2.30;99.90;;;2.05;100.00;99958.19;5027302;28;20250;-83
2022/12/04 06:36:58;;;;;;;0.17;0.17;;;2.30;99.90;;;2.05;100.00;99959.09;5020763;28;20321;-83
2022/12/04 06:39:25;;;;;;;0.10;0.10;;;3.00;99.90;;;2.07;100.00;99966.97;5027867;28;20254;-83
2022/12/04 06:41:52;;;;;;;0.35;0.35;;;2.30;99.90;;;2.06;100.00;99959.97;5031278;28;20226;-83
2022/12/04 06:44:19;;;;;;;0.38;0.38;;;2.60;99.90;;;2.07;100.00;99965.25;5027082;28;20285;-83
2022/12/04 06:46:48;;;;;;;0.20;0.20;;;2.90;99.90;;;2.06;100.00;99973.00;5022179;28;20228;-84
2022/12/04 06:49:16;;;;;;;0.10;0.10;;;3.20;99.90;;;2.09;100.00;99967.91;5024352;28;20224;-83
2022/12/04 06:51:43;;;;;;;0.20;0.20;;;2.50;99.90;;;2.08;100.00;99959.19;5029613;28;20242;-83
2022/12/04 06:54:10;;;;;;;0.30;0.30;;;2.30;99.90;;;2.12;100.00;99962.78;5021411;28;20513;-83
2022/12/04 06:56:38;;;;;;;0.10;0.10;;;2.30;99.90;;;2.07;100.00;99954.81;5011695;28;20266;-83
2022/12/04 06:59:05;;;;;;;0.10;0.10;;;2.30;99.90;;;2.11;100.00;99961.91;5027064;28;20294;-80
2022/12/04 07:01:33;;;;;;;0.10;0.10;;;2.30;99.90;;;2.06;100.00;99963.47;5019967;28;20237;-83
2022/12/04 07:04:02;;;;;;;0.10;0.10;;;2.30;99.90;;;2.08;100.00;99963.53;5018145;28;20234;-83
2022/12/04 07:06:34;;;;;;;0.20;0.20;;;2.30;99.90;;;2.11;100.00;99967.13;5022652;28;20313;-83
2022/12/04 07:09:15;;;;;;;0.10;0.10;;;2.30;99.90;;;2.09;100.00;99963.56;4994169;28;20238;-87
2022/12/04 07:11:43;;;;;;;0.10;0.10;;;2.30;99.90;;;2.11;100.00;99967.13;5020696;28;20320;-79
2022/12/04 07:14:12;;;;;;;0.35;0.35;;;2.30;99.90;;;2.09;100.00;99965.31;5029901;28;20220;-88
2022/12/04 07:16:41;;;;;;;0.10;0.10;;;3.40;99.90;;;2.09;100.00;99963.56;5030000;28;20300;-86
2022/12/04 07:19:13;;;;;;;0.10;0.10;;;2.30;99.90;;;2.30;100.00;99978.19;5021172;28;20231;-85
2022/12/04 07:21:42;;;;;;;0.10;0.10;;;2.40;99.90;;;2.17;100.00;99969.94;5023522;28;20277;-84
2022/12/04 07:24:15;;;;;;;0.10;0.10;;;3.40;99.90;;;2.11;100.00;99961.91;5030636;28;20254;-83
2022/12/04 07:26:42;;;;;;;0.10;0.10;;;2.50;99.90;;;2.09;100.00;99960.09;4997774;28;20279;-87
2022/12/04 07:29:09;;;;;;;0.40;0.40;;;2.30;99.90;;;2.12;100.00;99971.50;5014249;28;20231;-84
2022/12/04 07:31:37;;;;;;;0.10;0.10;;;2.30;99.90;;;2.13;100.00;99972.41;5026651;28;20254;-84
2022/12/04 07:34:05;;;;;;;0.10;0.10;;;2.80;99.90;;;2.11;100.00;99974.06;5021274;28;20237;-84
2022/12/04 07:36:32;;;;;;;0.52;0.52;;;2.60;99.90;;;2.13;100.00;99970.66;5028988;28;20230;-83
2022/12/04 07:38:59;;;;;;;0.10;0.10;;;2.30;99.90;;;2.12;100.00;99968.00;5029133;28;20289;-81
2022/12/04 07:41:26;;;;;;;0.10;0.10;;;3.00;99.90;;;2.15;100.00;99981.16;5018454;28;20223;-83
2022/12/04 07:43:53;;;;;;;0.10;0.10;;;3.30;99.90;;;2.11;100.00;99971.44;5028674;28;20269;-83
2022/12/04 07:46:24;;;;;;;0.10;0.10;;;2.40;99.90;;;2.18;100.00;99983.88;5026974;28;20236;-81
2022/12/04 07:48:54;;;;;;;0.10;0.10;;;3.00;99.90;;;2.18;100.00;99978.66;5018392;28;20237;-83
2022/12/04 07:51:25;;;;;;;0.10;0.10;;;2.30;99.90;;;2.20;100.00;99977.00;5029270;28;20231;-80
2022/12/04 07:53:54;;;;;;;0.10;0.10;;;2.80;99.90;;;2.17;100.00;99964.72;5023290;28;20238;-81
2022/12/04 07:56:21;;;;;;;0.20;0.20;;;2.30;99.90;;;2.14;100.00;99967.22;5023698;28;20259;-81
2022/12/04 07:58:48;;;;;;;0.10;0.10;;;2.60;99.90;;;2.16;100.00;99967.28;5023121;28;20241;-80
2022/12/04 08:01:21;;;;;;;0.10;0.10;;;2.40;99.90;;;2.16;100.00;99962.97;5021269;28;20289;-81
2022/12/04 08:03:54;;;;;;;0.10;0.10;;;2.30;99.90;;;2.19;100.00;99968.28;5027946;28;20231;-80
2022/12/04 08:06:25;;;;;;;0.10;0.10;;;2.40;99.90;;;2.22;100.00;99977.94;5025114;28;20233;-78
2022/12/04 08:08:53;;;;;;;0.10;0.10;;;2.40;99.90;;;2.20;100.00;99972.66;5018411;28;20266;-79
2022/12/04 08:11:23;;;;;;;0.10;0.10;;;2.40;99.90;;;2.20;100.00;99967.44;5024695;28;20242;-81
2022/12/04 08:13:59;;;;;;;0.10;0.10;;;2.40;99.90;;;2.24;100.00;99977.16;5024774;28;20540;-80
2022/12/04 08:16:29;;;;;;;0.20;0.20;;;3.30;99.90;;;2.24;100.00;99974.53;5042373;28;20293;-79
2022/12/04 08:18:57;;;;;;;0.10;0.10;;;2.40;99.90;;;2.23;100.00;99959.72;5030546;28;20242;-81
2022/12/04 08:21:28;;;;;;;0.10;0.10;;;2.40;99.90;;;2.27;100.00;99970.25;5032162;28;20226;-81
2022/12/04 08:23:56;;;;;;;0.55;0.55;;;2.40;99.90;;;2.29;100.00;99974.69;5024958;28;20246;-80
2022/12/04 08:26:26;;;;;;;0.10;0.10;;;2.40;99.90;;;2.28;100.00;99975.53;5027569;28;20230;-80
2022/12/04 08:28:55;;;;;;;0.10;0.10;;;3.10;99.90;;;2.30;100.00;99975.59;5017272;28;20227;-80
2022/12/04 08:31:25;;;;;;;0.10;0.10;;;2.50;99.90;;;2.25;100.00;99960.66;5031380;28;20312;-80
2022/12/04 08:33:56;;;;;;;0.10;0.10;;;2.50;99.90;;;2.26;100.00;99961.56;5026441;28;20218;-81
2022/12/04 08:36:24;;;;;;;0.10;0.10;;;2.60;99.90;;;2.31;100.00;99970.41;5032475;28;20310;-81
2022/12/04 08:38:51;;;;;;;0.10;0.10;;;2.50;99.90;;;2.38;100.00;99990.66;5029124;28;20227;-81
2022/12/04 08:41:22;;;;;;;0.10;0.10;;;2.60;99.90;;;2.34;100.00;99980.06;5021062;28;20235;-81
2022/12/04 08:43:53;;;;;;;0.10;0.10;;;2.50;99.90;;;2.34;100.00;99973.13;5024833;28;20227;-78
2022/12/04 08:46:22;;;;;;;0.10;0.10;;;2.70;99.90;;;2.35;100.00;99956.66;5018044;28;20299;-80
2022/12/04 08:48:49;;;;;;;0.10;0.10;;;2.50;99.90;;;2.33;100.00;99962.66;5015684;28;20232;-80
2022/12/04 08:51:20;;;;;;;0.38;0.38;;;2.50;99.90;;;2.35;100.00;99971.41;5026247;28;20230;-80
2022/12/04 08:53:51;;;;;;;0.10;0.10;;;2.50;99.90;;;2.38;100.00;99980.22;5030533;28;20325;-82
2022/12/04 08:56:18;;;;;;;0.10;0.10;;;2.60;99.90;;;2.43;100.00;99977.78;5029030;28;20243;-80
2022/12/04 08:58:45;;;;;;;0.30;0.30;;;2.60;99.90;;;2.45;100.00;99979.59;5018079;28;20270;-80
2022/12/04 09:01:14;;;;;;;0.10;0.10;;;2.60;99.90;;;2.43;100.00;99989.09;5014579;28;20255;-79
2022/12/04 09:03:42;;;;;;;0.10;0.10;;;2.80;99.90;;;2.39;100.00;99983.72;5026419;28;20407;-79
2022/12/04 09:06:12;;;;;;;0.10;0.10;;;2.60;99.90;;;2.43;100.00;99981.28;5015836;28;20610;-83
2022/12/04 09:08:40;;;;;;;0.30;0.30;;;3.10;99.90;;;2.44;100.00;99983.06;5027475;28;20306;-80
2022/12/04 09:11:17;;;;;;;0.10;0.10;;;3.60;99.90;;;2.37;100.00;99973.25;5025927;28;20227;-79
2022/12/04 09:13:46;;;;;;;0.25;0.25;;;2.60;99.90;;;2.38;100.00;99972.41;5028077;28;20230;-80
2022/12/04 09:16:18;;;;;;;0.10;0.10;;;2.60;99.90;;;2.41;100.00;99982.94;5033652;28;20238;-80
2022/12/04 09:18:46;;;;;;;0.20;0.20;;;2.60;99.90;;;2.42;100.00;99982.13;5032027;28;20239;-80
2022/12/04 09:21:15;;;;;;;0.32;0.32;;;2.60;99.90;;;2.30;100.00;99975.59;5028292;28;20235;-80
2022/12/04 09:23:43;;;;;;;0.10;0.10;;;2.70;99.90;;;2.20;100.00;99971.78;4991480;28;20266;-81
2022/12/04 09:26:27;;;;;;;0.10;0.10;;;2.50;99.90;;;2.25;100.00;99978.03;5013408;28;20238;-80
2022/12/04 09:28:56;;;;;;;1.58;1.48;;;2.30;99.90;;;2.21;100.00;99983.97;5012450;28;20313;-81
2022/12/04 09:31:24;;;;;;;0.10;0.10;;;2.50;99.90;;;2.19;100.00;99989.16;5018602;28;20255;-80
2022/12/04 09:33:52;;;;;;;0.15;0.15;;;2.50;99.90;;;2.18;100.00;99979.56;5020541;28;20235;-80
2022/12/04 09:36:19;;;;;;;0.22;0.22;;;2.40;99.90;;;2.18;100.00;99976.94;5020183;28;20301;-80
2022/12/04 09:38:50;;;;;;;0.10;0.10;;;2.40;99.90;;;2.17;100.00;99985.59;5024274;28;20231;-80
2022/12/04 09:41:35;;;;;;;0.63;0.63;;;2.50;99.90;;;2.23;100.00;99992.75;5020260;28;20259;-81
2022/12/04 09:44:24;;;;;;;0.10;0.10;;;2.40;99.90;;;2.22;100.00;99996.19;5018176;28;20243;-81
2022/12/04 09:47:19;;;;;;;1.05;1.05;;;2.30;99.90;;;2.21;100.00;99997.03;5024406;28;20258;-80
2022/12/04 09:50:10;;;;;;;0.10;0.10;;;2.40;99.90;;;2.30;100.00;99994.75;5018776;28;20298;-80
2022/12/04 09:53:10;;;;;;;0.20;0.20;;;2.50;99.90;;;2.23;100.00;99991.03;5016972;28;20223;-80
2022/12/04 09:55:56;;;;;;;0.10;0.10;;;2.40;99.90;;;2.24;100.00;99992.81;5025869;28;20228;-80
2022/12/04 09:58:56;;;;;;;0.10;0.10;;;2.50;99.90;;;2.23;100.00;99985.81;5022727;28;20289;-80
2022/12/04 10:01:24;;;;;;;0.20;0.20;;;2.40;99.90;;;2.17;100.00;99977.78;5003660;28;20249;-80
2022/12/04 10:03:53;;;;;;;0.10;0.10;;;2.40;99.90;;;2.18;100.00;99968.22;5023388;28;20219;-81
2022/12/04 10:06:35;;;;;;;0.95;0.95;;;2.40;99.90;;;2.27;100.00;99986.81;5021664;28;20282;-79
2022/12/04 10:09:19;;;;;;;0.10;0.10;;;2.40;99.90;;;2.31;100.00;99986.09;5021051;28;20245;-81
2022/12/04 10:12:17;;;;;;;0.10;0.10;;;2.70;99.90;;;2.24;100.00;99964.09;5017578;28;20231;-81
2022/12/04 10:15:27;;;;;;;1.08;1.08;;;2.70;99.90;;;2.22;100.00;99962.28;5021531;28;20239;-80
2022/12/04 10:18:18;;;;;;;0.10;0.10;;;2.40;99.90;;;2.29;100.00;99960.78;5026313;28;20234;-81
2022/12/04 10:21:00;;;;;;;0.10;0.10;;;2.50;99.90;;;2.17;100.00;99942.97;5015523;28;20254;-79
2022/12/04 10:23:51;;;;;;;0.10;0.10;;;2.40;99.90;;;2.27;100.00;99959.84;5021924;28;20226;-80
2022/12/04 10:26:26;;;;;;;0.10;0.10;;;2.40;99.90;;;2.32;100.00;99956.53;5017264;28;20266;-80
2022/12/04 10:29:04;;;;;;;0.10;0.10;;;2.60;99.90;;;2.33;100.00;99945.28;5018514;28;20238;-80
2022/12/04 10:31:35;;;;;;;0.10;0.10;;;2.50;99.90;;;2.24;100.00;99927.59;5019663;28;20235;-79
2022/12/04 10:34:15;;;;;;;0.10;0.10;;;2.40;99.90;;;2.22;100.00;99920.53;5013804;28;20219;-79
2022/12/04 10:36:58;;;;;;;0.10;0.10;;;2.40;99.90;;;2.24;100.00;99921.47;5015038;28;20230;-80
2022/12/04 10:39:35;;;;;;;0.10;0.10;;;2.90;99.90;;;2.34;100.00;99923.56;5018598;28;20688;-79
2022/12/04 10:42:24;;;;;;;0.10;0.10;;;2.50;99.90;;;2.21;100.00;99916.16;5014944;28;20238;-80
2022/12/04 10:44:53;;;;;;;0.60;0.60;;;2.40;99.90;;;2.28;100.00;99918.13;5011067;28;20302;-81
2022/12/04 10:47:22;;;;;;;0.10;0.10;;;2.50;99.90;;;2.23;100.00;99915.38;5013962;28;20687;-78
2022/12/04 10:50:00;;;;;;;0.30;0.30;;;2.70;99.90;;;2.29;100.00;99921.63;5014612;28;20246;-79
2022/12/04 10:52:28;;;;;;;0.20;0.20;;;2.40;99.90;;;2.30;100.00;99931.25;5018556;28;20235;-81
2022/12/04 10:55:00;;;;;;;0.10;0.10;;;2.60;99.90;;;2.37;100.00;99933.22;5021893;28;20268;-80
2022/12/04 10:57:41;;;;;;;0.32;0.32;;;2.80;99.90;;;2.22;100.00;99916.22;5013161;28;20234;-82
2022/12/04 11:00:32;;;;;;;0.10;0.10;;;2.50;99.90;;;2.28;100.00;99915.53;5019316;28;20234;-80
2022/12/04 11:03:04;;;;;;;0.10;0.10;;;2.50;99.90;;;2.31;100.00;99912.13;5021836;28;20318;-83
2022/12/04 11:05:38;;;;;;;0.10;0.10;;;2.50;99.90;;;2.30;100.00;99916.47;5012876;28;20223;-80
2022/12/04 11:08:06;;;;;;;0.10;0.10;;;2.50;99.90;;;2.20;100.00;99899.63;5010947;28;20294;-80
2022/12/04 11:10:37;;;;;;;0.10;0.10;;;2.40;99.90;;;2.29;100.00;99903.38;5018501;28;20230;-79
2022/12/04 11:13:09;;;;;;;0.20;0.20;;;2.50;99.90;;;2.32;100.00;99904.38;5013741;28;20682;-80
2022/12/04 11:15:50;;;;;;;0.10;0.10;;;2.50;99.90;;;2.35;100.00;99903.56;5018827;28;20226;-80